Time;durP1;ratioP1;P1;durP2;ratioP2;P2;SDS_P1;SDS_P2;PMS_P1;PMS_P2;Temp;Humidity;BMP_temperature;BMP_pressure;BME280_temperature;BME280_humidity;BME280_pressure;Samples;Min_cycle;Max_cycle;Signal;HPM_P1;HPM_P2
2023/01/02 00:01:33;;;;;;;10.73;10.05;;;;;;;;;;5067344;28;20033;-63
2023/01/02 00:03:59;;;;;;;11.82;11.07;;;;;;;;;;5066761;28;20046;-63
2023/01/02 00:06:25;;;;;;;11.55;10.85;;;;;;;;;;5074249;28;20039;-53
2023/01/02 00:08:50;;;;;;;12.88;11.85;;;;;;;;;;5071745;28;20119;-54
2023/01/02 00:11:16;;;;;;;11.38;10.57;;;;;;;;;;5074056;28;20449;-63
2023/01/02 00:13:42;;;;;;;11.00;10.20;;;;;;;;;;5070666;28;20118;-63
2023/01/02 00:16:07;;;;;;;10.93;10.23;;;;;;;;;;5073715;28;20271;-64
2023/01/02 00:18:33;;;;;;;11.77;11.07;;;;;;;;;;5069172;28;20033;-62
2023/01/02 00:21:05;;;;;;;10.20;9.60;;;;;;;;;;5069357;28;20052;-63
2023/01/02 00:23:32;;;;;;;11.98;10.70;;;;;;;;;;5067400;28;20071;-51
2023/01/02 00:25:58;;;;;;;10.35;9.68;;;;;;;;;;5069662;28;20036;-50
2023/01/02 00:28:24;;;;;;;11.95;11.15;;;;;;;;;;5070581;28;20075;-53
2023/01/02 00:30:50;;;;;;;10.68;9.98;;;;;;;;;;5068962;28;20338;-51
2023/01/02 00:33:15;;;;;;;10.45;9.85;;;;;;;;;;5071390;28;20041;-52
2023/01/02 00:35:41;;;;;;;11.55;10.85;;;;;;;;;;5072405;28;20271;-63
2023/01/02 00:38:07;;;;;;;10.95;10.25;;;;;;;;;;5070293;28;20730;-54
2023/01/02 00:40:33;;;;;;;10.65;9.95;;;;;;;;;;5066436;28;20051;-63
2023/01/02 00:42:58;;;;;;;11.25;10.55;;;;;;;;;;5066295;28;20051;-54
2023/01/02 00:45:24;;;;;;;10.90;10.20;;;;;;;;;;5063680;28;20036;-63
2023/01/02 00:47:50;;;;;;;17.65;11.38;;;;;;;;;;5066910;28;20478;-49
2023/01/02 00:50:16;;;;;;;9.93;9.32;;;;;;;;;;5065201;28;20103;-63
2023/01/02 00:52:41;;;;;;;11.52;10.80;;;;;;;;;;5066775;28;20096;-63
2023/01/02 00:55:07;;;;;;;11.73;10.93;;;;;;;;;;5065586;28;20028;-54
2023/01/02 00:57:33;;;;;;;11.35;10.55;;;;;;;;;;5071409;28;20033;-53
2023/01/02 01:00:01;;;;;;;11.80;11.00;;;;;;;;;;5070100;28;20032;-54
2023/01/02 01:02:26;;;;;;;12.55;11.75;;;;;;;;;;5065685;28;20032;-62
2023/01/02 01:04:52;;;;;;;10.10;9.40;;;;;;;;;;5068175;28;20070;-52
2023/01/02 01:07:18;;;;;;;12.45;11.65;;;;;;;;;;5066449;28;20029;-63
2023/01/02 01:09:43;;;;;;;12.68;11.88;;;;;;;;;;5069751;28;20037;-54
2023/01/02 01:12:12;;;;;;;10.57;9.90;;;;;;;;;;5069836;28;20048;-58
2023/01/02 01:14:47;;;;;;;11.15;10.45;;;;;;;;;;5066998;28;20092;-52
2023/01/02 01:17:12;;;;;;;15.20;12.20;;;;;;;;;;5071222;28;20036;-63
2023/01/02 01:19:38;;;;;;;11.23;10.52;;;;;;;;;;5066734;28;20043;-63
2023/01/02 01:22:06;;;;;;;13.23;12.18;;;;;;;;;;5066633;28;20040;-62
2023/01/02 01:24:32;;;;;;;10.60;9.90;;;;;;;;;;5066109;28;20448;-63
2023/01/02 01:26:58;;;;;;;11.20;10.50;;;;;;;;;;5070532;28;20066;-53
2023/01/02 01:29:23;;;;;;;10.48;9.85;;;;;;;;;;5067028;28;20032;-52
2023/01/02 01:31:49;;;;;;;11.65;10.95;;;;;;;;;;5067978;28;20174;-52
2023/01/02 01:34:14;;;;;;;10.68;9.98;;;;;;;;;;5065963;28;20029;-51
2023/01/02 01:36:40;;;;;;;11.70;11.00;;;;;;;;;;5065433;28;20132;-52
2023/01/02 01:39:05;;;;;;;12.27;11.48;;;;;;;;;;5064887;28;20369;-53
2023/01/02 01:41:33;;;;;;;12.13;11.40;;;;;;;;;;5068789;28;20037;-52
2023/01/02 01:44:00;;;;;;;13.55;12.60;;;;;;;;;;5069754;28;20039;-55
2023/01/02 01:46:52;;;;;;;13.25;12.35;;;;;;;;;;5065717;28;20036;-50
2023/01/02 01:49:29;;;;;;;12.07;11.18;;;;;;;;;;5062511;28;20186;-52
2023/01/02 01:52:05;;;;;;;11.50;10.80;;;;;;;;;;5069554;28;20576;-54
2023/01/02 01:54:35;;;;;;;11.27;10.57;;;;;;;;;;5070501;28;20039;-53
2023/01/02 01:57:28;;;;;;;11.10;10.40;;;;;;;;;;5068355;28;20307;-49
2023/01/02 01:59:56;;;;;;;10.68;9.98;;;;;;;;;;5068406;28;20105;-63
2023/01/02 02:02:24;;;;;;;11.52;10.70;;;;;;;;;;5072694;28;20082;-63
2023/01/02 02:04:50;;;;;;;11.70;11.00;;;;;;;;;;5069676;28;20033;-63
2023/01/02 02:07:16;;;;;;;12.18;11.38;;;;;;;;;;5068238;28;20169;-63
2023/01/02 02:10:07;;;;;;;11.25;10.55;;;;;;;;;;5070548;28;20450;-63
2023/01/02 02:12:33;;;;;;;11.32;10.63;;;;;;;;;;5066377;28;20032;-63
2023/01/02 02:14:59;;;;;;;13.30;11.95;;;;;;;;;;5068811;28;20032;-62
2023/01/02 02:17:54;;;;;;;21.80;12.45;;;;;;;;;;5064933;28;20038;-61
2023/01/02 02:20:47;;;;;;;11.07;10.38;;;;;;;;;;5065611;28;20080;-55
2023/01/02 02:23:51;;;;;;;10.60;9.90;;;;;;;;;;5065641;28;20033;-62
2023/01/02 02:26:40;;;;;;;11.75;11.05;;;;;;;;;;5070728;28;20124;-62
2023/01/02 02:29:41;;;;;;;11.20;10.50;;;;;;;;;;5053819;28;20051;-62
2023/01/02 02:32:12;;;;;;;;;;;;;;;;;;5064031;28;20048;-61
2023/01/02 02:34:48;;;;;;;10.40;9.73;;;;;;;;;;5065718;28;20326;-62
2023/01/02 02:37:27;;;;;;;10.63;9.93;;;;;;;;;;5053236;28;20064;-62
2023/01/02 02:39:59;;;;;;;12.60;11.50;;;;;;;;;;5067614;28;20032;-62
2023/01/02 02:42:35;;;;;;;10.75;10.05;;;;;;;;;;5071210;28;20032;-50
2023/01/02 02:45:11;;;;;;;11.38;10.48;;;;;;;;;;5071882;28;20036;-49
2023/01/02 02:47:49;;;;;;;11.45;10.75;;;;;;;;;;5070494;28;20313;-51
2023/01/02 02:50:28;;;;;;;12.00;11.25;;;;;;;;;;5069485;28;20773;-62
2023/01/02 02:53:13;;;;;;;11.07;10.38;;;;;;;;;;5064905;28;20093;-61
2023/01/02 02:55:43;;;;;;;11.63;10.40;;;;;;;;;;5063795;28;20063;-62
2023/01/02 02:58:11;;;;;;;11.10;10.40;;;;;;;;;;5068832;28;20361;-53
2023/01/02 03:00:37;;;;;;;12.38;11.35;;;;;;;;;;5067169;28;20392;-52
2023/01/02 03:03:17;;;;;;;11.32;10.43;;;;;;;;;;5065989;28;20036;-62
2023/01/02 03:06:12;;;;;;;13.10;12.23;;;;;;;;;;5080082;28;20055;-61
2023/01/02 03:08:59;;;;;;;9.75;9.15;;;;;;;;;;5062189;28;20402;-61
2023/01/02 03:11:42;;;;;;;10.68;9.88;;;;;;;;;;5065481;28;20044;-62
2023/01/02 03:14:25;;;;;;;11.05;10.35;;;;;;;;;;5070305;28;20642;-61
2023/01/02 03:16:59;;;;;;;10.27;9.68;;;;;;;;;;5064850;28;20041;-50
2023/01/02 03:19:36;;;;;;;11.05;10.35;;;;;;;;;;5064362;28;20682;-52
2023/01/02 03:22:10;;;;;;;9.95;9.35;;;;;;;;;;5064583;28;20064;-62
2023/01/02 03:24:37;;;;;;;10.93;10.05;;;;;;;;;;5069576;28;20118;-52
2023/01/02 03:27:07;;;;;;;10.48;9.77;;;;;;;;;;5061179;28;20479;-62
2023/01/02 03:29:38;;;;;;;10.18;9.57;;;;;;;;;;5061261;28;20037;-61
2023/01/02 03:32:10;;;;;;;10.45;9.85;;;;;;;;;;5066880;28;20039;-62
2023/01/02 03:34:39;;;;;;;10.65;9.95;;;;;;;;;;5069265;28;20741;-62
2023/01/02 03:37:10;;;;;;;9.50;8.90;;;;;;;;;;5071512;28;20089;-53
2023/01/02 03:39:42;;;;;;;10.15;9.55;;;;;;;;;;5060231;28;20385;-61
2023/01/02 03:42:42;;;;;;;9.82;9.23;;;;;;;;;;5072496;28;20563;-61
2023/01/02 03:45:22;;;;;;;10.63;9.77;;;;;;;;;;5062694;28;20057;-51
2023/01/02 03:47:55;;;;;;;9.30;8.70;;;;;;;;;;5069131;28;20032;-51
2023/01/02 03:50:26;;;;;;;10.57;9.88;;;;;;;;;;5071630;28;20171;-53
2023/01/02 03:52:52;;;;;;;9.75;8.95;;;;;;;;;;5069189;28;20032;-49
2023/01/02 03:55:18;;;;;;;9.88;9.23;;;;;;;;;;5072049;28;20048;-49
2023/01/02 03:58:01;;;;;;;10.07;9.27;;;;;;;;;;5066176;28;20401;-52
2023/01/02 04:00:35;;;;;;;9.75;9.05;;;;;;;;;;5066289;28;20033;-52
2023/01/02 04:03:01;;;;;;;9.90;9.20;;;;;;;;;;5064831;28;20670;-52
2023/01/02 04:05:36;;;;;;;11.68;9.93;;;;;;;;;;5068469;28;20040;-50
2023/01/02 04:08:17;;;;;;;11.32;10.52;;;;;;;;;;5062208;28;20020;-52
2023/01/02 04:10:46;;;;;;;10.02;9.40;;;;;;;;;;5066014;28;20051;-61
2023/01/02 04:13:20;;;;;;;11.18;10.48;;;;;;;;;;5067233;28;20116;-62
2023/01/02 04:15:48;;;;;;;9.40;8.80;;;;;;;;;;5065800;28;20044;-61
2023/01/02 04:18:25;;;;;;;10.52;9.82;;;;;;;;;;5064957;28;20040;-53
2023/01/02 04:20:55;;;;;;;10.40;9.70;;;;;;;;;;5065532;28;20063;-61
2023/01/02 04:23:29;;;;;;;9.88;9.18;;;;;;;;;;5066975;28;20078;-61
2023/01/02 04:26:03;;;;;;;11.13;10.38;;;;;;;;;;5072744;28;20036;-61
2023/01/02 04:28:31;;;;;;;10.63;9.93;;;;;;;;;;5066738;28;20412;-62
2023/01/02 04:31:07;;;;;;;10.68;9.95;;;;;;;;;;5068184;28;20036;-61
2023/01/02 04:33:38;;;;;;;11.13;10.32;;;;;;;;;;5066968;28;20040;-52
2023/01/02 04:36:12;;;;;;;9.77;9.18;;;;;;;;;;5067125;28;20036;-52
2023/01/02 04:38:38;;;;;;;10.82;10.20;;;;;;;;;;5070565;28;20024;-62
2023/01/02 04:41:05;;;;;;;10.68;9.98;;;;;;;;;;5068856;28;20088;-53
2023/01/02 04:43:31;;;;;;;10.52;9.82;;;;;;;;;;5069737;28;20499;-52
2023/01/02 04:45:56;;;;;;;10.75;10.05;;;;;;;;;;5069001;28;20044;-62
2023/01/02 04:48:22;;;;;;;11.45;10.65;;;;;;;;;;5066819;28;20031;-62
2023/01/02 04:50:47;;;;;;;10.50;9.80;;;;;;;;;;5068145;28;20038;-62
2023/01/02 04:53:13;;;;;;;10.80;10.10;;;;;;;;;;5069534;28;20039;-50
2023/01/02 04:55:40;;;;;;;11.57;10.88;;;;;;;;;;5067739;28;20029;-49
2023/01/02 04:58:05;;;;;;;11.73;11.02;;;;;;;;;;5071352;28;20060;-61
2023/01/02 05:00:31;;;;;;;11.60;10.90;;;;;;;;;;5065142;28;20136;-51
2023/01/02 05:02:56;;;;;;;11.23;10.38;;;;;;;;;;5064557;28;20533;-52
2023/01/02 05:05:22;;;;;;;11.05;10.35;;;;;;;;;;5066465;28;20040;-50
2023/01/02 05:07:47;;;;;;;11.35;10.55;;;;;;;;;;5064445;28;20039;-53
2023/01/02 05:10:13;;;;;;;11.60;10.90;;;;;;;;;;5063255;28;20539;-52
2023/01/02 05:12:39;;;;;;;10.93;10.23;;;;;;;;;;5063566;28;20029;-51
2023/01/02 05:15:09;;;;;;;11.60;10.90;;;;;;;;;;5066606;28;20025;-50
2023/01/02 05:17:39;;;;;;;11.73;11.02;;;;;;;;;;5066418;28;20120;-52
2023/01/02 05:20:07;;;;;;;10.63;10.00;;;;;;;;;;5066874;28;20058;-51
2023/01/02 05:25:16;;;;;;;12.00;11.20;;;;;;;;;;5071493;28;20629;-49
2023/01/02 05:27:42;;;;;;;12.27;11.48;;;;;;;;;;5065959;28;20048;-53
2023/01/02 05:30:08;;;;;;;11.77;10.95;;;;;;;;;;5067371;28;20039;-52
2023/01/02 05:32:34;;;;;;;11.80;10.77;;;;;;;;;;5072261;28;20047;-62
2023/01/02 05:34:59;;;;;;;11.82;11.07;;;;;;;;;;5063319;28;20108;-62
2023/01/02 05:37:25;;;;;;;11.80;11.05;;;;;;;;;;5066872;28;20049;-48
2023/01/02 05:39:50;;;;;;;13.88;12.75;;;;;;;;;;5065977;28;20049;-53
2023/01/02 05:42:16;;;;;;;11.07;10.38;;;;;;;;;;5065425;28;20036;-61
2023/01/02 05:44:41;;;;;;;11.32;10.63;;;;;;;;;;5066331;28;20538;-61
2023/01/02 05:47:06;;;;;;;11.93;11.13;;;;;;;;;;5069984;28;20104;-53
2023/01/02 05:49:32;;;;;;;11.10;10.40;;;;;;;;;;5065613;28;20425;-52
2023/01/02 05:51:57;;;;;;;11.52;10.82;;;;;;;;;;5064540;28;20040;-61
2023/01/02 05:54:23;;;;;;;10.57;9.88;;;;;;;;;;5064972;28;20050;-61
2023/01/02 05:56:48;;;;;;;11.85;11.05;;;;;;;;;;5065689;28;20149;-61
2023/01/02 05:59:14;;;;;;;11.57;10.88;;;;;;;;;;5068010;28;20984;-61
2023/01/02 06:01:40;;;;;;;11.65;10.85;;;;;;;;;;5067456;28;20394;-62
2023/01/02 06:04:05;;;;;;;11.75;10.85;;;;;;;;;;5067879;28;20055;-62
2023/01/02 06:06:36;;;;;;;11.93;11.07;;;;;;;;;;5068294;28;20466;-62
2023/01/02 06:09:02;;;;;;;12.18;11.48;;;;;;;;;;5066732;28;20028;-54
2023/01/02 06:11:29;;;;;;;10.60;10.00;;;;;;;;;;5062689;28;20386;-52
2023/01/02 06:13:55;;;;;;;10.82;10.13;;;;;;;;;;5065843;28;20032;-52
2023/01/02 06:16:21;;;;;;;10.77;10.07;;;;;;;;;;5066421;28;20070;-54
2023/01/02 06:18:47;;;;;;;11.43;10.73;;;;;;;;;;5068224;28;20188;-63
2023/01/02 06:21:14;;;;;;;11.38;10.68;;;;;;;;;;5066614;28;20036;-62
2023/01/02 06:23:41;;;;;;;12.07;11.27;;;;;;;;;;5070496;28;20121;-62
2023/01/02 06:26:16;;;;;;;11.43;10.73;;;;;;;;;;5068722;28;20165;-63
2023/01/02 06:28:42;;;;;;;11.35;10.65;;;;;;;;;;5064605;28;20646;-53
2023/01/02 06:31:13;;;;;;;10.98;10.27;;;;;;;;;;5068155;28;20715;-52
2023/01/02 06:33:40;;;;;;;11.93;11.02;;;;;;;;;;5062720;28;20040;-63
2023/01/02 06:36:08;;;;;;;11.60;10.90;;;;;;;;;;5067879;28;20437;-62
2023/01/02 06:38:34;;;;;;;13.02;12.02;;;;;;;;;;5062992;28;20024;-63
2023/01/02 06:41:01;;;;;;;10.70;10.02;;;;;;;;;;5065942;28;20047;-63
2023/01/02 06:43:28;;;;;;;11.13;10.43;;;;;;;;;;5064916;28;20036;-63
2023/01/02 06:45:56;;;;;;;10.73;10.02;;;;;;;;;;5061872;28;20493;-50
2023/01/02 06:48:22;;;;;;;11.05;10.35;;;;;;;;;;5063309;28;20037;-53
2023/01/02 06:50:47;;;;;;;10.95;10.25;;;;;;;;;;5066214;28;20035;-52
2023/01/02 06:53:13;;;;;;;11.35;10.65;;;;;;;;;;5067686;28;20059;-62
2023/01/02 06:55:39;;;;;;;11.77;11.02;;;;;;;;;;5067187;28;20446;-63
2023/01/02 06:58:04;;;;;;;11.63;10.93;;;;;;;;;;5068509;28;20473;-62
2023/01/02 07:00:30;;;;;;;11.40;10.68;;;;;;;;;;5063008;28;20032;-62
2023/01/02 07:02:55;;;;;;;12.38;11.57;;;;;;;;;;5064577;28;20548;-63
2023/01/02 07:05:20;;;;;;;11.23;10.43;;;;;;;;;;5058522;28;20102;-63
2023/01/02 07:07:46;;;;;;;9.95;9.35;;;;;;;;;;5061329;28;20025;-62
2023/01/02 07:10:11;;;;;;;10.82;10.02;;;;;;;;;;5067328;28;20112;-62
2023/01/02 07:12:37;;;;;;;11.40;10.70;;;;;;;;;;5068047;28;20027;-63
2023/01/02 07:15:04;;;;;;;10.40;9.80;;;;;;;;;;5069232;28;20043;-61
2023/01/02 07:17:31;;;;;;;10.38;9.77;;;;;;;;;;5073797;28;20039;-62
2023/01/02 07:19:57;;;;;;;11.38;10.57;;;;;;;;;;5071688;28;20182;-62
2023/01/02 07:22:24;;;;;;;11.30;10.55;;;;;;;;;;5073258;28;20101;-62
2023/01/02 07:24:49;;;;;;;11.90;11.10;;;;;;;;;;5068443;28;20036;-51
2023/01/02 07:27:14;;;;;;;11.80;10.95;;;;;;;;;;5069177;28;20047;-52
2023/01/02 07:29:40;;;;;;;11.60;10.75;;;;;;;;;;5068912;28;20520;-62
2023/01/02 07:32:05;;;;;;;12.65;11.73;;;;;;;;;;5071798;28;20028;-62
2023/01/02 07:34:31;;;;;;;11.65;10.95;;;;;;;;;;5072691;28;20110;-62
2023/01/02 07:36:56;;;;;;;11.82;11.02;;;;;;;;;;5072480;28;20044;-52
2023/01/02 07:39:23;;;;;;;11.77;10.98;;;;;;;;;;5069089;28;20715;-52
2023/01/02 07:41:48;;;;;;;11.77;10.98;;;;;;;;;;5067765;28;20085;-50
2023/01/02 07:44:14;;;;;;;11.00;10.30;;;;;;;;;;5069575;28;20511;-50
2023/01/02 07:46:39;;;;;;;11.45;10.63;;;;;;;;;;5070870;28;20475;-62
2023/01/02 07:49:05;;;;;;;12.15;11.43;;;;;;;;;;5069443;28;20032;-62
2023/01/02 07:51:31;;;;;;;11.38;10.68;;;;;;;;;;5074056;28;20028;-62
2023/01/02 07:53:56;;;;;;;11.95;11.23;;;;;;;;;;5070004;28;20457;-62
2023/01/02 07:56:22;;;;;;;12.45;11.60;;;;;;;;;;5066949;28;20102;-62
2023/01/02 07:58:47;;;;;;;12.35;11.57;;;;;;;;;;5069078;28;20061;-61
2023/01/02 08:01:13;;;;;;;10.80;10.05;;;;;;;;;;5070233;28;20070;-62
2023/01/02 08:03:39;;;;;;;11.73;10.93;;;;;;;;;;5067946;28;20497;-62
2023/01/02 08:06:08;;;;;;;11.95;11.25;;;;;;;;;;5071493;28;20107;-62
2023/01/02 08:08:34;;;;;;;10.38;9.75;;;;;;;;;;5069611;28;20107;-62
2023/01/02 08:11:11;;;;;;;12.05;11.15;;;;;;;;;;5065685;28;20035;-62
2023/01/02 08:13:37;;;;;;;12.20;11.40;;;;;;;;;;5071965;28;20035;-50
2023/01/02 08:16:08;;;;;;;12.60;11.80;;;;;;;;;;5062632;28;20039;-52
2023/01/02 08:18:34;;;;;;;11.80;11.07;;;;;;;;;;5071091;28;20035;-52
2023/01/02 08:20:59;;;;;;;12.15;11.45;;;;;;;;;;5071530;28;20552;-52
2023/01/02 08:23:25;;;;;;;12.32;11.43;;;;;;;;;;5067546;28;20036;-54
2023/01/02 08:25:50;;;;;;;12.05;11.25;;;;;;;;;;5070349;28;20039;-52
2023/01/02 08:28:16;;;;;;;13.45;12.40;;;;;;;;;;5070066;28;20063;-62
2023/01/02 08:30:41;;;;;;;12.57;11.43;;;;;;;;;;5066708;28;20028;-62
2023/01/02 08:33:07;;;;;;;12.18;11.48;;;;;;;;;;5072688;28;20370;-62
2023/01/02 08:35:32;;;;;;;13.88;12.73;;;;;;;;;;5067048;28;20063;-50
2023/01/02 08:37:58;;;;;;;14.40;13.50;;;;;;;;;;5066304;28;20037;-53
2023/01/02 08:40:23;;;;;;;14.55;13.65;;;;;;;;;;5067402;28;20683;-62
2023/01/02 08:42:49;;;;;;;13.68;12.68;;;;;;;;;;5068189;28;20574;-62
2023/01/02 08:45:15;;;;;;;16.38;15.02;;;;;;;;;;5068191;28;20159;-62
2023/01/02 08:47:40;;;;;;;13.85;13.05;;;;;;;;;;5060101;28;20036;-64
2023/01/02 08:50:06;;;;;;;16.90;15.90;;;;;;;;;;5065469;28;20024;-62
2023/01/02 08:52:31;;;;;;;15.57;14.55;;;;;;;;;;5065877;28;20528;-62
2023/01/02 08:54:59;;;;;;;15.85;14.85;;;;;;;;;;5064448;28;20466;-62
2023/01/02 08:57:24;;;;;;;16.02;15.02;;;;;;;;;;5066049;28;20036;-62
2023/01/02 08:59:50;;;;;;;17.70;16.27;;;;;;;;;;5063698;28;20110;-62
2023/01/02 09:02:15;;;;;;;18.58;17.10;;;;;;;;;;5065073;28;20087;-66
2023/01/02 09:04:40;;;;;;;15.10;14.20;;;;;;;;;;5066165;28;20046;-62
2023/01/02 09:07:06;;;;;;;17.65;16.65;;;;;;;;;;5066539;28;20035;-62
2023/01/02 09:09:31;;;;;;;17.15;16.15;;;;;;;;;;5066279;28;20357;-62
2023/01/02 09:11:58;;;;;;;17.85;16.83;;;;;;;;;;5065262;28;20039;-62
2023/01/02 09:14:23;;;;;;;18.05;16.95;;;;;;;;;;5067558;28;20044;-62
2023/01/02 09:16:50;;;;;;;17.38;16.38;;;;;;;;;;5067242;28;20043;-62
2023/01/02 09:19:15;;;;;;;16.67;15.77;;;;;;;;;;5069646;28;20048;-62
2023/01/02 09:21:41;;;;;;;16.02;15.13;;;;;;;;;;5069455;28;20040;-53
2023/01/02 09:24:07;;;;;;;18.15;17.05;;;;;;;;;;5061567;28;20365;-54
2023/01/02 09:26:33;;;;;;;19.05;17.77;;;;;;;;;;5069178;28;20040;-62
2023/01/02 09:28:58;;;;;;;17.30;16.30;;;;;;;;;;5066348;28;20197;-62
2023/01/02 09:31:24;;;;;;;19.73;17.45;;;;;;;;;;5067404;28;20039;-62
2023/01/02 09:33:52;;;;;;;18.40;17.20;;;;;;;;;;5064119;28;20044;-62
2023/01/02 09:36:19;;;;;;;17.95;16.63;;;;;;;;;;5072296;28;20035;-50
2023/01/02 09:38:49;;;;;;;19.55;18.13;;;;;;;;;;5064372;28;20744;-63
2023/01/02 09:41:25;;;;;;;;;;;;;;;;;;5075464;28;20419;-62
2023/01/02 09:43:56;;;;;;;16.00;15.00;;;;;;;;;;5067716;28;20587;-62
2023/01/02 09:46:35;;;;;;;17.15;16.08;;;;;;;;;;5065328;28;20495;-62
2023/01/02 09:49:01;;;;;;;21.45;19.30;;;;;;;;;;5065163;28;20032;-62
2023/01/02 09:51:28;;;;;;;18.63;17.52;;;;;;;;;;5066919;28;20397;-62
2023/01/02 09:53:53;;;;;;;18.20;17.20;;;;;;;;;;5065162;28;20042;-50
2023/01/02 09:56:25;;;;;;;18.35;17.35;;;;;;;;;;5065867;28;20556;-54
2023/01/02 09:58:59;;;;;;;18.40;17.30;;;;;;;;;;5064789;28;20733;-50
2023/01/02 10:01:43;;;;;;;18.23;17.17;;;;;;;;;;5068826;28;20735;-62
2023/01/02 10:04:28;;;;;;;19.27;18.15;;;;;;;;;;5062321;28;20112;-62
2023/01/02 10:06:58;;;;;;;17.42;16.42;;;;;;;;;;5067834;28;20523;-62
2023/01/02 10:09:41;;;;;;;17.95;16.95;;;;;;;;;;5058505;28;20048;-61
2023/01/02 10:12:19;;;;;;;20.52;19.08;;;;;;;;;;5059447;28;20040;-61
2023/01/02 10:14:58;;;;;;;17.92;16.92;;;;;;;;;;5062896;28;20031;-62
2023/01/02 10:17:27;;;;;;;19.42;17.65;;;;;;;;;;5063838;28;20032;-52
2023/01/02 10:20:05;;;;;;;20.13;19.02;;;;;;;;;;5066157;28;20032;-50
2023/01/02 10:22:42;;;;;;;20.95;19.75;;;;;;;;;;5066509;28;20036;-51
2023/01/02 10:25:17;;;;;;;20.98;19.65;;;;;;;;;;5062747;28;20032;-53
2023/01/02 10:27:51;;;;;;;20.48;19.33;;;;;;;;;;5064497;28;20055;-54
2023/01/02 10:30:22;;;;;;;20.08;18.98;;;;;;;;;;5069929;28;20036;-51
2023/01/02 10:32:59;;;;;;;20.50;19.38;;;;;;;;;;5068414;28;20044;-54
2023/01/02 10:35:37;;;;;;;20.23;19.10;;;;;;;;;;5066484;28;20083;-62
2023/01/02 10:38:03;;;;;;;22.48;21.27;;;;;;;;;;5064645;28;20111;-62
2023/01/02 10:40:31;;;;;;;20.13;19.02;;;;;;;;;;5066191;28;20051;-51
2023/01/02 10:42:58;;;;;;;20.38;19.27;;;;;;;;;;5069541;28;20032;-61
2023/01/02 10:45:23;;;;;;;20.33;19.23;;;;;;;;;;5066765;28;20033;-62
2023/01/02 10:47:49;;;;;;;20.92;19.83;;;;;;;;;;5061992;28;20804;-49
2023/01/02 10:50:24;;;;;;;22.23;21.02;;;;;;;;;;5063704;28;20079;-52
2023/01/02 10:53:13;;;;;;;20.63;19.52;;;;;;;;;;5056135;28;20040;-62
2023/01/02 10:55:43;;;;;;;20.15;18.95;;;;;;;;;;5067126;28;20036;-52
2023/01/02 10:58:26;;;;;;;20.75;19.65;;;;;;;;;;5067478;28;20043;-62
2023/01/02 11:01:06;;;;;;;18.85;17.85;;;;;;;;;;5063075;28;20048;-61
2023/01/02 11:03:31;;;;;;;16.02;15.13;;;;;;;;;;5067946;28;20048;-61
2023/01/02 11:05:57;;;;;;;15.05;14.15;;;;;;;;;;5063310;28;20032;-62
2023/01/02 11:08:34;;;;;;;15.25;14.18;;;;;;;;;;5058367;28;20024;-51
2023/01/02 11:11:02;;;;;;;14.52;13.73;;;;;;;;;;5063628;28;20040;-60
2023/01/02 11:13:45;;;;;;;15.02;14.02;;;;;;;;;;5066244;28;20036;-62
2023/01/02 11:16:13;;;;;;;14.70;13.80;;;;;;;;;;5061442;28;20460;-62
2023/01/02 11:18:39;;;;;;;13.88;13.07;;;;;;;;;;5062364;28;20075;-62
2023/01/02 11:21:06;;;;;;;13.43;12.63;;;;;;;;;;5064699;28;20032;-62
2023/01/02 11:23:38;;;;;;;13.82;13.02;;;;;;;;;;5065072;28;20033;-61
2023/01/02 11:26:09;;;;;;;12.25;11.55;;;;;;;;;;5064756;28;20039;-62
2023/01/02 11:28:38;;;;;;;19.20;11.68;;;;;;;;;;5067593;28;20040;-61
2023/01/02 11:31:08;;;;;;;12.20;11.50;;;;;;;;;;5062651;28;20040;-62
2023/01/02 11:33:35;;;;;;;13.80;12.80;;;;;;;;;;5065512;28;20047;-61
2023/01/02 11:36:04;;;;;;;13.88;13.07;;;;;;;;;;5062089;28;20440;-62
2023/01/02 11:38:49;;;;;;;13.23;12.38;;;;;;;;;;5063948;28;20041;-62
2023/01/02 11:43:47;;;;;;;11.85;11.15;;;;;;;;;;5063815;28;20047;-61
2023/01/02 11:44:32;;;;;;;11.10;10.40;;;;;;;;;;5064691;28;20037;-62
2023/01/02 11:46:59;;;;;;;22.95;10.52;;;;;;;;;;5062240;28;20039;-61
2023/01/02 11:49:29;;;;;;;11.32;10.63;;;;;;;;;;5061902;28;20062;-61
2023/01/02 11:52:01;;;;;;;10.60;9.90;;;;;;;;;;5064160;28;20029;-61
2023/01/02 11:54:40;;;;;;;11.93;11.18;;;;;;;;;;5065130;28;20366;-62
2023/01/02 11:57:15;;;;;;;12.38;11.45;;;;;;;;;;5062635;28;20028;-61
2023/01/02 11:59:46;;;;;;;10.70;10.00;;;;;;;;;;5058486;28;20210;-62
2023/01/02 12:02:39;;;;;;;12.88;11.88;;;;;;;;;;5063781;28;20032;-61
2023/01/02 12:05:12;;;;;;;12.10;11.30;;;;;;;;;;5060587;28;20070;-61
2023/01/02 12:07:54;;;;;;;11.50;10.80;;;;;;;;;;5068523;28;20314;-61
2023/01/02 12:10:22;;;;;;;10.43;9.73;;;;;;;;;;5063190;28;20050;-62
2023/01/02 12:12:53;;;;;;;10.95;10.25;;;;;;;;;;5065628;28;20035;-61
2023/01/02 12:15:46;;;;;;;12.15;11.25;;;;;;;;;;5045895;28;20121;-61
2023/01/02 12:18:44;;;;;;;11.82;11.05;;;;;;;;;;5048334;28;20117;-62
2023/01/02 12:21:24;;;;;;;9.88;9.27;;;;;;;;;;5034355;28;20138;-50
2023/01/02 12:24:27;;;;;;;11.35;10.65;;;;;;;;;;5036721;28;20144;-51
2023/01/02 12:26:52;;;;;;;9.90;9.30;;;;;;;;;;5035788;28;20044;-61
2023/01/02 12:29:46;;;;;;;11.07;10.38;;;;;;;;;;5035066;28;20141;-61
2023/01/02 12:32:37;;;;;;;17.70;9.85;;;;;;;;;;5035553;28;20417;-61
2023/01/02 12:35:16;;;;;;;10.20;9.57;;;;;;;;;;5029784;28;20037;-51
2023/01/02 12:37:51;;;;;;;10.13;9.52;;;;;;;;;;5036258;28;20036;-52
2023/01/02 12:40:38;;;;;;;9.73;9.02;;;;;;;;;;5033108;28;20037;-51
2023/01/02 12:43:31;;;;;;;10.60;9.80;;;;;;;;;;5034058;28;20033;-61
2023/01/02 12:46:15;;;;;;;10.00;9.40;;;;;;;;;;5021795;28;20033;-51
2023/01/02 12:48:57;;;;;;;11.00;10.20;;;;;;;;;;5034046;28;20521;-61
2023/01/02 12:51:50;;;;;;;11.93;11.10;;;;;;;;;;5029461;28;20033;-53
2023/01/02 12:54:27;;;;;;;9.80;9.20;;;;;;;;;;5032292;28;20182;-50
2023/01/02 12:57:04;;;;;;;10.25;9.60;;;;;;;;;;5032550;28;20399;-52
2023/01/02 12:59:56;;;;;;;12.40;11.02;;;;;;;;;;5032566;28;20662;-48
2023/01/02 13:02:49;;;;;;;10.05;9.45;;;;;;;;;;5033744;28;20079;-60
2023/01/02 13:05:23;;;;;;;11.30;10.60;;;;;;;;;;5033763;28;20486;-61
2023/01/02 13:08:06;;;;;;;11.07;10.38;;;;;;;;;;5035983;28;20029;-62
2023/01/02 13:10:32;;;;;;;12.43;11.55;;;;;;;;;;5034673;28;20078;-62
2023/01/02 13:13:00;;;;;;;10.70;10.02;;;;;;;;;;5034526;28;20028;-50
2023/01/02 13:15:35;;;;;;;11.80;11.05;;;;;;;;;;5034493;28;20037;-50
2023/01/02 13:18:20;;;;;;;10.52;9.82;;;;;;;;;;5030506;28;20041;-50
2023/01/02 13:20:56;;;;;;;11.00;10.30;;;;;;;;;;5034688;28;20041;-49
2023/01/02 13:23:39;;;;;;;11.20;10.50;;;;;;;;;;5033433;28;20033;-51
2023/01/02 13:26:09;;;;;;;10.40;9.77;;;;;;;;;;5034505;28;20034;-51
2023/01/02 13:28:53;;;;;;;12.60;11.70;;;;;;;;;;5032969;28;20037;-62
2023/01/02 13:31:18;;;;;;;11.35;10.65;;;;;;;;;;5032782;28;20060;-52
2023/01/02 13:33:47;;;;;;;13.05;10.25;;;;;;;;;;5033251;28;20546;-53
2023/01/02 13:36:44;;;;;;;11.20;10.30;;;;;;;;;;5036875;28;20056;-61
2023/01/02 13:39:28;;;;;;;11.98;11.13;;;;;;;;;;5030270;28;20048;-62
2023/01/02 13:44:49;;;;;;;11.73;11.00;;;;;;;;;;5030672;28;20080;-51
2023/01/02 13:47:18;;;;;;;10.90;10.10;;;;;;;;;;5029759;28;20749;-61
2023/01/02 13:49:49;;;;;;;11.52;10.73;;;;;;;;;;5031571;28;20124;-62
2023/01/02 13:52:19;;;;;;;11.15;10.45;;;;;;;;;;5033065;28;20566;-50
2023/01/02 13:55:09;;;;;;;10.90;10.20;;;;;;;;;;5037145;28;20037;-61
2023/01/02 13:57:35;;;;;;;11.63;10.55;;;;;;;;;;5030635;28;20378;-62
2023/01/02 14:00:23;;;;;;;10.88;10.20;;;;;;;;;;5030199;28;20081;-51
2023/01/02 14:03:16;;;;;;;10.65;9.95;;;;;;;;;;5033963;28;20033;-52
2023/01/02 14:06:00;;;;;;;11.95;11.25;;;;;;;;;;5034247;28;20047;-62
2023/01/02 14:08:38;;;;;;;11.00;10.30;;;;;;;;;;5035522;28;20033;-50
2023/01/02 14:11:12;;;;;;;11.77;10.98;;;;;;;;;;5034027;28;20021;-61
2023/01/02 14:13:44;;;;;;;10.75;10.07;;;;;;;;;;5031850;28;20390;-62
2023/01/02 14:16:21;;;;;;;11.55;10.68;;;;;;;;;;5035775;28;20033;-62
2023/01/02 14:19:11;;;;;;;10.93;10.23;;;;;;;;;;5029378;28;20385;-53
2023/01/02 14:21:42;;;;;;;11.18;10.38;;;;;;;;;;5035182;28;20064;-61
2023/01/02 14:24:22;;;;;;;10.55;9.93;;;;;;;;;;5035211;28;20040;-51
2023/01/02 14:26:57;;;;;;;10.75;10.05;;;;;;;;;;5029178;28;20099;-52
2023/01/02 14:29:24;;;;;;;11.07;10.38;;;;;;;;;;5031598;28;20670;-49
2023/01/02 14:32:08;;;;;;;10.90;10.20;;;;;;;;;;5028405;28;20091;-62
2023/01/02 14:34:43;;;;;;;14.65;12.35;;;;;;;;;;5034492;28;20051;-62
2023/01/02 14:37:10;;;;;;;10.52;9.93;;;;;;;;;;5033375;28;20029;-61
2023/01/02 14:39:37;;;;;;;11.10;10.40;;;;;;;;;;5033012;28;20041;-62
2023/01/02 14:45:07;;;;;;;10.65;9.95;;;;;;;;;;5034491;28;20055;-61
2023/01/02 14:47:37;;;;;;;10.90;10.20;;;;;;;;;;5032483;28;20039;-53
2023/01/02 14:50:05;;;;;;;10.50;9.90;;;;;;;;;;5047752;28;20222;-51
2023/01/02 14:52:44;;;;;;;10.70;9.95;;;;;;;;;;5037327;28;20112;-52
2023/01/02 14:55:14;;;;;;;10.52;9.88;;;;;;;;;;5035999;28;20404;-62